CCDO2: Spavinaw Creek nr Colcord OK

Data processed at Fri May 24 2019 23:50


All information presented herein is the property of the government of the United States of America and may be revised or deleted at any time without prior notice.
Dissemination of this information without the expressed written consent of the Public Affairs Office, Tulsa District U.S. Army Corps of Engineers is strictly prohibited.
These data are gathered electronically and, as presented, have not undergone any form of quality control. These data are not guaranteed to be valid or correct.
Go to home page.
Go to station list.
Go to home page.

Upstream stations:

Downstream station:
Previous Day
Next Day
Current Day
    
SHEF ID:       CCDO2     Spavinaw Creek near Colcord, OK
STATION TYPE:  

               PRECIP     STAGE  RIV-FLOW  WTR-TEMP   DIS-OXY        PH   CONDUCT TURBIDITY  BAT-LOAD
                   in        ft       cfs         F      mg/l        su   umho/cm       NTU      volt
              Ccp-Rev   Ccp-Rev   Ccp-Rev   Ccp-Rev   Ccp-Rev   Ccp-Rev   Ccp-Rev   Ccp-Rev   Ccp-Rev
(US/Central)
05/24 00:00      0.00      8.80       995     62.83      7.97      7.54       239      ----     12.71
05/24 01:00      0.00      8.79       988     62.55      7.98      7.55       240      ----     12.71
05/24 02:00      0.00      8.77       974     62.28      8.00      7.54       240      ----     12.71
05/24 03:00      0.00      8.75       960     62.08      8.01      7.54       240      ----     12.71
05/24 04:00      0.00      8.74       954     61.90      8.02      7.55       240      ----     12.71
05/24 05:00      0.00      8.73       947     61.74      8.04      7.55       241      ----     12.65
05/24 06:00      0.00      8.72       940     61.65      8.05      7.55       241      ----     12.65
05/24 07:00      0.00      8.70       925     61.57      8.07      7.56       241      ----     12.65
05/24 08:00      0.00      8.69       918     61.66      8.14      7.58       242      ----     12.65
05/24 09:00      0.00      8.68       911     62.08      8.20      7.60       242      ----     12.65
05/24 10:00      0.00      8.67       904     62.76      8.25      7.61       242      ----     12.71
05/24 11:00      0.00      8.65       890     63.55      8.29      7.63       243      ----     12.77
05/24 12:00      0.00      8.64       881     64.42      8.30      7.64       243      ----     12.95
05/24 13:00      0.00      8.64       881     65.44      8.28      7.64       243      ----     13.65
05/24 14:00      0.00      8.63       873     66.38      8.26      7.65       244      ----     13.77
05/24 15:00      0.00      8.62       864     66.90      8.21      7.65       244      ----     13.83
05/24 16:00      0.00      8.61       856     66.76      8.17      7.63       244      ----     13.83
05/24 17:00      0.00      8.59       841     67.01      8.14      7.63       245      ----     13.71
05/24 18:00      0.00      8.58       834     66.76      8.08      7.63       245      ----     13.00
05/24 19:00      0.00      8.57       826     66.22      8.01      7.62       245      ----     13.00
05/24 20:00      0.00      8.56       819     65.57      7.94      7.60       245      ----     12.83
05/24 21:00      0.00      8.55       812     64.92      7.89      7.59       245      ----     12.77
05/24 22:00      0.00      8.55       812     64.29      7.86      7.58       245      ----     12.77
05/24 23:00      0.00      8.53       798     63.81      7.86      7.58       246      ----     12.71